Time;durP1;ratioP1;P1;durP2;ratioP2;P2;SDS_P1;SDS_P2;PMS_P1;PMS_P2;Temp;Humidity;BMP_temperature;BMP_pressure;BME280_temperature;BME280_humidity;BME280_pressure;Samples;Min_cycle;Max_cycle;Signal;HPM_P1;HPM_P2
2023/06/25 00:01:35;;;;;;;6.13;5.05;;;17.90;99.90;;;;;;4980259;28;20045;-73
2023/06/25 00:04:00;;;;;;;6.55;5.35;;;18.00;99.90;;;;;;4980463;28;20037;-73
2023/06/25 00:06:26;;;;;;;5.32;4.80;;;17.90;99.90;;;;;;4981300;28;20053;-73
2023/06/25 00:08:52;;;;;;;7.03;5.13;;;17.90;99.90;;;;;;4974641;28;20041;-72
2023/06/25 00:11:18;;;;;;;8.27;4.88;;;17.90;99.90;;;;;;4986486;28;20045;-73
2023/06/25 00:13:43;;;;;;;6.75;4.93;;;17.90;99.90;;;;;;4978191;28;20408;-72
2023/06/25 00:16:09;;;;;;;7.70;5.63;;;17.90;99.90;;;;;;4969679;28;20046;-73
2023/06/25 00:18:35;;;;;;;7.72;5.20;;;17.80;99.90;;;;;;4979311;28;20042;-74
2023/06/25 00:21:01;;;;;;;5.75;4.60;;;17.80;99.90;;;;;;4969601;28;20708;-75
2023/06/25 00:23:27;;;;;;;5.57;4.22;;;17.80;99.90;;;;;;4979601;28;20044;-73
2023/06/25 00:25:53;;;;;;;5.30;4.53;;;17.80;99.90;;;;;;4981096;28;20394;-74
2023/06/25 00:28:19;;;;;;;5.97;4.45;;;17.80;99.90;;;;;;4981079;28;20065;-72
2023/06/25 00:30:44;;;;;;;6.95;4.25;;;17.70;99.90;;;;;;4984868;28;20732;-73
2023/06/25 00:33:10;;;;;;;6.25;4.93;;;17.80;99.90;;;;;;4959643;28;20049;-72
2023/06/25 00:35:49;;;;;;;6.18;4.55;;;17.80;99.90;;;;;;4974635;28;20673;-73
2023/06/25 00:38:16;;;;;;;5.07;4.40;;;17.80;99.90;;;;;;4975895;28;20728;-73
2023/06/25 00:40:42;;;;;;;7.45;4.65;;;17.80;99.90;;;;;;4984131;28;20049;-72
2023/06/25 00:43:08;;;;;;;5.85;4.05;;;17.90;99.90;;;;;;4975634;28;20547;-73
2023/06/25 00:45:35;;;;;;;5.93;3.65;;;17.90;99.90;;;;;;4973860;28;20654;-73
2023/06/25 00:48:02;;;;;;;5.35;4.82;;;18.00;99.90;;;;;;4961558;28;20307;-74
2023/06/25 00:50:28;;;;;;;7.15;4.63;;;18.10;99.90;;;;;;4971509;28;20517;-73
2023/06/25 00:52:57;;;;;;;6.57;4.88;;;18.00;99.90;;;;;;4984305;28;20061;-72
2023/06/25 00:55:23;;;;;;;8.88;5.32;;;18.00;99.90;;;;;;4957755;28;20101;-72
2023/06/25 00:57:51;;;;;;;6.63;5.05;;;18.10;99.90;;;;;;4976185;28;20112;-73
2023/06/25 01:00:19;;;;;;;6.82;5.25;;;18.10;99.90;;;;;;4960414;28;20617;-72
2023/06/25 01:03:26;;;;;;;9.90;6.20;;;18.10;99.90;;;;;;4984788;28;20188;-73
2023/06/25 01:06:17;;;;;;;10.55;6.30;;;18.00;99.90;;;;;;4980213;28;20068;-73
2023/06/25 01:08:50;;;;;;;8.57;6.70;;;18.00;99.90;;;;;;4977180;28;20053;-74
2023/06/25 01:11:16;;;;;;;;;;;18.00;99.90;;;;;;4986643;28;20160;-72
2023/06/25 01:13:43;;;;;;;10.02;8.35;;;18.00;99.90;;;;;;4988234;28;19928;-71
2023/06/25 01:16:09;;;;;;;10.63;6.20;;;17.90;99.90;;;;;;4986183;28;20061;-73
2023/06/25 01:18:39;;;;;;;8.07;6.38;;;17.90;99.90;;;;;;4978596;28;20486;-72
2023/06/25 01:21:07;;;;;;;6.60;5.90;;;17.80;99.90;;;;;;4976812;28;20084;-71
2023/06/25 01:23:35;;;;;;;7.10;6.20;;;17.70;99.90;;;;;;4978241;28;20046;-73
2023/06/25 01:26:01;;;;;;;6.50;5.88;;;17.70;99.90;;;;;;4981514;28;20054;-72
2023/06/25 01:28:27;;;;;;;7.47;6.55;;;17.60;99.90;;;;;;4980191;28;20045;-73
2023/06/25 01:30:53;;;;;;;8.13;6.80;;;17.60;99.90;;;;;;4974973;28;20129;-73
2023/06/25 01:33:25;;;;;;;9.57;7.13;;;17.50;99.90;;;;;;4979488;28;20046;-72
2023/06/25 01:35:54;;;;;;;8.13;7.13;;;17.50;99.90;;;;;;4982752;28;20038;-73
2023/06/25 01:38:20;;;;;;;10.45;7.10;;;17.40;99.90;;;;;;4985145;28;20046;-73
2023/06/25 01:40:46;;;;;;;11.70;8.02;;;17.40;99.90;;;;;;4983678;28;20042;-72
2023/06/25 01:43:11;;;;;;;9.63;8.00;;;17.40;99.90;;;;;;4985462;28;20477;-71
2023/06/25 01:45:37;;;;;;;8.60;7.10;;;17.40;99.90;;;;;;4956436;28;20050;-73
2023/06/25 01:48:03;;;;;;;11.43;7.18;;;17.40;99.90;;;;;;4977626;28;20042;-74
2023/06/25 01:50:29;;;;;;;8.05;6.65;;;17.30;99.90;;;;;;4975138;28;20054;-75
2023/06/25 01:52:55;;;;;;;9.65;8.02;;;17.30;99.90;;;;;;4975502;28;20050;-73
2023/06/25 01:55:21;;;;;;;7.97;7.22;;;17.30;99.90;;;;;;4976662;28;20074;-72
2023/06/25 01:57:46;;;;;;;9.20;7.57;;;17.30;99.90;;;;;;4975790;28;20068;-74
2023/06/25 02:00:13;;;;;;;8.45;7.53;;;17.30;99.90;;;;;;4980433;28;20049;-73
2023/06/25 02:02:39;;;;;;;9.65;8.65;;;17.30;99.90;;;;;;4979910;28;20438;-70
2023/06/25 02:05:04;;;;;;;9.10;8.20;;;17.30;99.90;;;;;;4976270;28;20034;-72
2023/06/25 02:07:30;;;;;;;12.48;10.13;;;17.20;99.90;;;;;;4956427;28;20608;-72
2023/06/25 02:09:57;;;;;;;16.27;11.90;;;17.20;99.90;;;;;;4974355;28;20042;-73
2023/06/25 02:12:22;;;;;;;17.13;13.52;;;17.20;1.00;;;;;;4973452;28;20041;-71
2023/06/25 02:14:48;;;;;;;12.85;11.48;;;17.20;1.00;;;;;;4977787;28;20057;-71
2023/06/25 02:17:17;;;;;;;17.50;13.75;;;17.20;1.00;;;;;;4975608;28;20461;-74
2023/06/25 02:19:43;;;;;;;18.98;14.20;;;17.30;1.00;;;;;;4971523;28;20042;-72
2023/06/25 02:22:09;;;;;;;15.45;13.38;;;17.30;1.00;;;;;;4959498;28;20041;-72
2023/06/25 02:24:34;;;;;;;13.85;11.93;;;17.30;1.00;;;;;;4973538;28;20708;-72
2023/06/25 02:27:00;;;;;;;15.90;12.60;;;17.40;1.00;;;;;;4966723;28;20620;-72
2023/06/25 02:29:26;;;;;;;15.02;12.43;;;17.30;1.00;;;;;;4979430;28;20112;-73
2023/06/25 02:31:51;;;;;;;13.63;11.35;;;17.30;1.00;;;;;;4979945;28;20046;-72
2023/06/25 02:34:17;;;;;;;14.18;9.55;;;17.40;1.00;;;;;;4977722;28;20049;-72
2023/06/25 02:36:43;;;;;;;13.52;10.63;;;17.70;36.60;;;;;;4979691;28;20046;-72
2023/06/25 02:39:09;;;;;;;14.65;11.65;;;17.90;1.00;;;;;;4956523;28;20217;-71
2023/06/25 02:41:35;;;;;;;14.93;11.82;;;18.00;1.00;;;;;;4994364;28;20717;-72
2023/06/25 02:44:00;;;;;;;13.02;11.30;;;18.00;1.00;;;;;;4962151;28;20045;-72
2023/06/25 02:46:26;;;;;;;13.35;11.68;;;18.00;1.00;;;;;;4978647;28;20570;-71
2023/06/25 02:48:52;;;;;;;13.93;11.40;;;18.00;1.00;;;;;;4958894;28;20520;-72
2023/06/25 02:51:17;;;;;;;13.48;11.27;;;18.00;1.00;;;;;;4966557;28;20181;-73
2023/06/25 02:53:43;;;;;;;12.80;11.45;;;18.10;1.00;;;;;;4981899;28;20073;-73
2023/06/25 02:56:09;;;;;;;13.85;11.50;;;18.20;1.00;;;;;;4981475;28;20040;-73
2023/06/25 02:58:34;;;;;;;14.77;11.70;;;18.30;1.00;;;;;;4974866;28;20785;-72
2023/06/25 03:01:00;;;;;;;12.73;11.30;;;18.40;1.00;;;;;;4980267;28;20488;-73
2023/06/25 03:03:26;;;;;;;12.95;10.93;;;18.40;1.00;;;;;;4973785;28;20054;-73
2023/06/25 03:05:53;;;;;;;15.20;12.07;;;18.30;1.00;;;;;;4958509;28;20511;-72
2023/06/25 03:08:18;;;;;;;17.08;12.82;;;18.30;1.00;;;;;;4975590;28;20042;-71
2023/06/25 03:10:44;;;;;;;14.07;11.80;;;18.20;1.00;;;;;;4972699;28;20766;-71
2023/06/25 03:13:11;;;;;;;18.45;13.98;;;18.20;1.00;;;;;;4978197;28;20409;-72
2023/06/25 03:15:37;;;;;;;16.67;13.52;;;18.20;1.00;;;;;;4978035;28;20092;-74
2023/06/25 03:18:03;;;;;;;15.63;13.68;;;18.20;1.00;;;;;;4975739;28;20124;-74
2023/06/25 03:20:29;;;;;;;16.60;13.82;;;18.20;1.00;;;;;;4977426;28;20057;-72
2023/06/25 03:22:54;;;;;;;16.63;13.88;;;18.20;1.00;;;;;;4979676;28;20704;-73
2023/06/25 03:25:20;;;;;;;16.70;14.02;;;18.20;1.00;;;;;;4974655;28;20057;-73
2023/06/25 03:27:46;;;;;;;18.23;14.55;;;18.40;13.20;;;;;;4976403;28;20049;-72
2023/06/25 03:30:12;;;;;;;18.30;13.95;;;18.40;28.10;;;;;;4984085;28;20407;-72
2023/06/25 03:32:37;;;;;;;16.05;13.07;;;18.40;50.40;;;;;;4978610;28;20042;-72
2023/06/25 03:35:03;;;;;;;12.18;10.98;;;18.50;65.10;;;;;;4980101;28;20085;-73
2023/06/25 03:37:29;;;;;;;13.40;10.95;;;18.60;94.90;;;;;;4973728;28;20039;-72
2023/06/25 03:39:55;;;;;;;12.05;9.70;;;18.70;64.00;;;;;;4972909;28;20046;-72
2023/06/25 03:42:20;;;;;;;12.45;10.00;;;18.70;1.00;;;;;;4974801;28;20788;-71
2023/06/25 03:44:49;;;;;;;12.63;9.40;;;18.70;1.00;;;;;;4975267;28;20038;-72
2023/06/25 03:47:15;;;;;;;10.98;9.38;;;18.70;1.00;;;;;;4980354;28;20038;-74
2023/06/25 03:49:43;;;;;;;13.70;9.82;;;18.70;99.90;;;;;;4959006;28;20085;-73
2023/06/25 03:52:08;;;;;;;13.73;10.00;;;18.70;99.90;;;;;;4981241;28;20034;-72
2023/06/25 03:54:34;;;;;;;13.27;11.38;;;18.70;99.90;;;;;;4970905;28;20064;-74
2023/06/25 03:57:00;;;;;;;12.57;10.15;;;18.60;99.90;;;;;;4993553;28;20040;-73
2023/06/25 03:59:26;;;;;;;12.02;10.80;;;18.70;99.90;;;;;;4981656;28;20034;-72
2023/06/25 04:01:51;;;;;;;11.68;9.90;;;18.70;99.90;;;;;;4977335;28;20054;-73
2023/06/25 04:04:17;;;;;;;15.40;10.02;;;18.70;99.90;;;;;;4981744;28;20042;-72
2023/06/25 04:06:43;;;;;;;12.63;9.23;;;18.80;99.90;;;;;;4975978;28;20050;-72
2023/06/25 04:09:08;;;;;;;12.18;9.30;;;18.80;99.90;;;;;;4971092;28;20057;-73
2023/06/25 04:11:34;;;;;;;12.43;9.52;;;18.80;99.90;;;;;;4966977;28;20056;-73
2023/06/25 04:14:00;;;;;;;10.15;9.07;;;18.90;99.90;;;;;;4981972;28;20055;-72
2023/06/25 04:16:25;;;;;;;9.25;8.13;;;19.00;99.90;;;;;;4976273;28;20046;-72
2023/06/25 04:18:51;;;;;;;11.68;9.30;;;19.10;99.90;;;;;;4976638;28;20046;-73
2023/06/25 04:21:17;;;;;;;8.90;7.75;;;19.20;99.90;;;;;;4980780;28;20049;-73
2023/06/25 04:23:42;;;;;;;12.43;7.10;;;19.20;99.90;;;;;;4979309;28;20663;-72
2023/06/25 04:26:09;;;;;;;9.00;6.65;;;19.30;99.90;;;;;;4979445;28;20043;-71
2023/06/25 04:28:35;;;;;;;7.60;5.95;;;19.30;99.90;;;;;;4977898;28;20745;-73
2023/06/25 04:31:01;;;;;;;6.75;5.63;;;19.40;99.90;;;;;;4980987;28;20121;-72
2023/06/25 04:33:27;;;;;;;8.38;5.53;;;19.50;79.30;;;;;;4981029;28;20860;-73
2023/06/25 04:35:52;;;;;;;7.63;6.13;;;19.50;12.90;;;;;;4962512;28;20077;-72
2023/06/25 04:38:18;;;;;;;6.35;5.57;;;19.60;1.00;;;;;;4983315;28;20034;-75
2023/06/25 04:40:44;;;;;;;9.25;7.80;;;19.70;1.00;;;;;;4984578;28;20050;-75
2023/06/25 04:43:09;;;;;;;7.32;6.63;;;19.70;1.00;;;;;;4982716;28;20038;-74
2023/06/25 04:45:35;;;;;;;10.15;8.00;;;19.80;1.00;;;;;;4978014;28;20829;-73
2023/06/25 04:48:01;;;;;;;8.52;6.80;;;19.80;1.00;;;;;;4955938;28;20046;-74
2023/06/25 04:50:27;;;;;;;7.80;6.53;;;19.80;1.00;;;;;;4978368;28;20576;-74
2023/06/25 04:52:55;;;;;;;7.30;6.45;;;19.90;99.90;;;;;;4981491;28;20088;-74
2023/06/25 04:55:21;;;;;;;7.68;6.63;;;19.90;99.90;;;;;;4983112;28;20042;-74
2023/06/25 04:57:47;;;;;;;8.63;7.10;;;19.90;1.00;;;;;;4979225;28;20052;-73
2023/06/25 05:00:15;;;;;;;7.75;7.05;;;19.90;99.90;;;;;;4975830;28;20112;-73
2023/06/25 05:02:40;;;;;;;8.02;7.20;;;19.90;99.90;;;;;;4977052;28;20043;-73
2023/06/25 05:05:06;;;;;;;8.82;7.75;;;19.90;99.90;;;;;;4975866;28;20053;-73
2023/06/25 05:07:32;;;;;;;9.57;8.43;;;20.00;99.90;;;;;;4969002;28;20045;-73
2023/06/25 05:09:58;;;;;;;10.73;8.63;;;20.00;99.90;;;;;;4978297;28;20046;-76
2023/06/25 05:12:23;;;;;;;11.25;8.57;;;20.00;1.00;;;;;;4979470;28;20577;-74
2023/06/25 05:14:49;;;;;;;10.68;8.50;;;20.00;1.00;;;;;;4978805;28;20046;-72
2023/06/25 05:17:15;;;;;;;10.20;8.40;;;20.00;1.00;;;;;;4978373;28;20057;-73
2023/06/25 05:19:40;;;;;;;9.30;8.30;;;20.10;1.00;;;;;;4979103;28;20099;-74
2023/06/25 05:22:06;;;;;;;9.60;8.02;;;20.10;1.00;;;;;;4979353;28;20065;-72
2023/06/25 05:24:32;;;;;;;10.23;7.93;;;20.20;99.90;;;;;;4983319;28;20627;-75
2023/06/25 05:26:58;;;;;;;8.60;7.78;;;20.30;99.90;;;;;;4977654;28;20074;-72
2023/06/25 05:29:24;;;;;;;8.48;7.10;;;20.40;99.90;;;;;;4977993;28;20625;-72
2023/06/25 05:31:51;;;;;;;7.80;6.47;;;20.50;99.90;;;;;;4939493;28;20050;-73
2023/06/25 05:34:17;;;;;;;8.02;6.03;;;20.90;99.90;;;;;;4977782;28;20725;-70
2023/06/25 05:36:43;;;;;;;8.13;6.00;;;21.20;99.90;;;;;;4980538;28;20050;-74
2023/06/25 05:39:09;;;;;;;5.60;5.10;;;21.40;99.90;;;;;;4981620;28;20121;-73
2023/06/25 05:41:40;;;;;;;5.22;4.10;;;21.60;99.90;;;;;;4981402;28;20100;-73
2023/06/25 05:44:06;;;;;;;6.63;4.78;;;21.70;92.10;;;;;;4980538;28;20132;-73
2023/06/25 05:46:32;;;;;;;6.65;4.63;;;21.70;17.90;;;;;;4957511;28;20164;-73
2023/06/25 05:48:58;;;;;;;6.57;4.68;;;21.90;42.10;;;;;;4974470;28;20133;-75
2023/06/25 05:51:24;;;;;;;9.00;4.38;;;21.90;2.90;;;;;;4976057;28;20132;-71
2023/06/25 05:53:50;;;;;;;4.75;4.25;;;22.00;12.20;;;;;;4977186;28;20535;-74
2023/06/25 05:56:16;;;;;;;5.05;4.65;;;22.10;1.00;;;;;;4977085;28;20049;-75
2023/06/25 05:58:42;;;;;;;5.47;4.10;;;22.10;1.00;;;;;;4974137;28;20654;-73
2023/06/25 06:01:08;;;;;;;5.60;4.85;;;22.30;1.00;;;;;;4977342;28;20769;-71
2023/06/25 06:03:34;;;;;;;6.72;5.35;;;22.40;1.00;;;;;;4975815;28;20080;-73
2023/06/25 06:06:00;;;;;;;5.80;5.20;;;22.50;1.00;;;;;;4979148;28;20129;-73
2023/06/25 06:08:26;;;;;;;6.65;5.28;;;22.50;1.00;;;;;;4969747;28;20050;-73
2023/06/25 06:10:52;;;;;;;6.03;5.45;;;22.50;1.00;;;;;;4980517;28;20038;-74
2023/06/25 06:13:18;;;;;;;5.85;5.22;;;22.50;1.00;;;;;;4982021;28;20046;-73
2023/06/25 06:15:43;;;;;;;5.68;5.10;;;22.60;1.00;;;;;;4977272;28;20917;-72
2023/06/25 06:18:09;;;;;;;7.22;4.70;;;22.60;1.00;;;;;;4978782;28;20057;-72
2023/06/25 06:20:35;;;;;;;4.97;4.15;;;22.60;1.00;;;;;;4983379;28;20046;-74
2023/06/25 06:23:02;;;;;;;5.00;4.50;;;22.80;1.00;;;;;;4978418;28;20147;-73
2023/06/25 06:25:28;;;;;;;6.03;4.25;;;22.90;99.90;;;;;;4976882;28;20046;-71
2023/06/25 06:27:54;;;;;;;5.32;4.50;;;23.00;99.90;;;;;;4974162;28;20065;-73
2023/06/25 06:30:23;;;;;;;7.40;4.82;;;23.10;99.90;;;;;;4983817;28;20050;-73
2023/06/25 06:32:49;;;;;;;5.53;4.95;;;23.20;99.90;;;;;;4979906;28;20497;-73
2023/06/25 06:35:15;;;;;;;4.68;4.13;;;23.40;99.90;;;;;;4974812;28;20053;-73
2023/06/25 06:37:40;;;;;;;4.63;4.18;;;23.40;99.90;;;;;;4980335;28;20054;-73
2023/06/25 06:40:07;;;;;;;5.85;4.10;;;23.30;99.90;;;;;;4973146;28;20046;-72
2023/06/25 06:42:35;;;;;;;4.43;3.97;;;23.50;99.90;;;;;;4977216;28;20037;-73
2023/06/25 06:45:02;;;;;;;6.88;4.93;;;23.60;99.90;;;;;;4980410;28;20136;-73
2023/06/25 06:47:28;;;;;;;6.88;5.25;;;23.70;99.90;;;;;;4979852;28;20565;-74
2023/06/25 06:49:53;;;;;;;6.47;5.72;;;23.80;99.90;;;;;;4985725;28;20046;-72
2023/06/25 06:52:23;;;;;;;6.78;6.07;;;23.90;99.90;;;;;;4974573;28;20062;-74
2023/06/25 06:54:49;;;;;;;8.27;7.43;;;24.00;99.90;;;;;;4981424;28;20074;-75
2023/06/25 06:57:15;;;;;;;8.48;7.65;;;24.00;99.90;;;;;;4985213;28;20076;-73
2023/06/25 06:59:41;;;;;;;9.32;8.15;;;23.90;99.90;;;;;;4983156;28;20060;-74
2023/06/25 07:02:06;;;;;;;8.88;8.05;;;24.00;99.90;;;;;;4979224;28;20886;-73
2023/06/25 07:04:32;;;;;;;9.63;7.75;;;24.00;99.90;;;;;;4961165;28;20045;-73
2023/06/25 07:06:58;;;;;;;10.02;9.02;;;24.00;99.90;;;;;;4977935;28;20077;-73
2023/06/25 07:09:25;;;;;;;11.70;9.35;;;24.10;99.90;;;;;;4977893;28;20064;-74
2023/06/25 07:11:52;;;;;;;10.38;8.85;;;24.20;99.90;;;;;;4977120;28;20026;-74
2023/06/25 07:14:18;;;;;;;10.57;9.60;;;24.30;99.90;;;;;;4971602;28;20054;-72
2023/06/25 07:16:44;;;;;;;10.95;9.90;;;24.40;99.90;;;;;;4955991;28;20699;-73
2023/06/25 07:19:10;;;;;;;10.75;9.65;;;24.30;99.90;;;;;;4974047;28;20100;-71
2023/06/25 07:21:37;;;;;;;12.05;10.30;;;24.20;99.90;;;;;;4981272;28;20050;-70
2023/06/25 07:24:03;;;;;;;11.20;9.88;;;24.30;99.90;;;;;;4979244;28;20821;-70
2023/06/25 07:26:29;;;;;;;10.07;9.07;;;24.20;99.90;;;;;;4979177;28;20053;-70
2023/06/25 07:28:55;;;;;;;10.90;9.82;;;24.30;99.90;;;;;;4982725;28;20038;-69
2023/06/25 07:31:20;;;;;;;10.52;9.50;;;24.30;99.90;;;;;;4987728;28;20042;-71
2023/06/25 07:33:46;;;;;;;10.23;9.23;;;24.40;99.90;;;;;;4978926;28;20295;-69
2023/06/25 07:36:15;;;;;;;11.63;10.32;;;24.60;99.90;;;;;;4983343;28;20557;-70
2023/06/25 07:38:42;;;;;;;11.15;9.80;;;24.70;99.90;;;;;;4988821;28;20084;-71
2023/06/25 07:41:07;;;;;;;9.95;8.95;;;24.70;99.90;;;;;;4988280;28;20129;-71
2023/06/25 07:43:34;;;;;;;9.60;8.70;;;24.90;99.90;;;;;;4977496;28;20079;-71
2023/06/25 07:46:00;;;;;;;10.20;8.80;;;25.10;99.90;;;;;;4985881;28;20053;-69
2023/06/25 07:48:26;;;;;;;9.82;8.93;;;25.40;99.90;;;;;;4980104;28;20038;-71
2023/06/25 07:50:52;;;;;;;10.38;9.40;;;25.60;99.90;;;;;;4978022;28;20089;-71
2023/06/25 07:53:18;;;;;;;11.77;9.10;;;25.60;99.90;;;;;;4978064;28;20050;-70
2023/06/25 07:55:45;;;;;;;9.68;8.88;;;25.70;99.90;;;;;;4976731;28;20042;-70
2023/06/25 07:58:11;;;;;;;9.88;8.52;;;25.80;99.90;;;;;;4977076;28;20729;-70
2023/06/25 08:00:37;;;;;;;10.63;8.23;;;26.00;99.90;;;;;;4978170;28;20107;-71
2023/06/25 08:03:03;;;;;;;10.15;9.02;;;26.10;99.90;;;;;;4992072;28;20254;-71
2023/06/25 08:05:29;;;;;;;9.75;8.85;;;26.30;99.90;;;;;;4988769;28;20068;-71
2023/06/25 08:07:56;;;;;;;9.82;8.93;;;26.30;99.90;;;;;;4977432;28;20145;-69
2023/06/25 08:10:23;;;;;;;10.52;8.20;;;26.40;99.90;;;;;;4977576;28;20043;-70
2023/06/25 08:12:50;;;;;;;9.30;8.40;;;26.50;99.90;;;;;;4976325;28;20437;-70
2023/06/25 08:15:16;;;;;;;9.27;8.30;;;26.80;99.90;;;;;;4972480;28;20046;-70
2023/06/25 08:17:42;;;;;;;9.38;8.50;;;26.90;47.00;;;;;;4985965;28;20044;-69
2023/06/25 08:20:08;;;;;;;9.95;8.93;;;27.00;46.20;;;;;;4957399;28;20042;-69
2023/06/25 08:22:33;;;;;;;10.25;8.40;;;27.00;98.10;;;;;;4979977;28;20252;-70
2023/06/25 08:24:59;;;;;;;9.88;8.95;;;27.00;99.90;;;;;;4978498;28;20049;-69
2023/06/25 08:27:25;;;;;;;9.80;8.93;;;27.20;42.60;;;;;;4977470;28;20489;-69
2023/06/25 08:29:51;;;;;;;9.57;8.15;;;27.30;1.00;;;;;;4955373;28;20144;-70
2023/06/25 08:32:16;;;;;;;8.90;8.10;;;27.30;1.00;;;;;;4963061;28;20045;-71
2023/06/25 08:34:42;;;;;;;9.60;8.63;;;27.50;15.70;;;;;;4982427;28;20297;-72
2023/06/25 08:37:08;;;;;;;9.90;8.90;;;27.60;1.00;;;;;;4949736;28;20512;-70
2023/06/25 08:39:33;;;;;;;9.20;8.38;;;27.70;1.00;;;;;;4979699;28;20053;-69
2023/06/25 08:41:59;;;;;;;8.80;8.00;;;27.80;1.00;;;;;;4979501;28;20049;-73
2023/06/25 08:44:25;;;;;;;10.05;9.13;;;27.80;1.00;;;;;;4983123;28;20128;-69
2023/06/25 08:46:54;;;;;;;9.07;8.20;;;27.90;1.00;;;;;;4979614;28;20045;-69
2023/06/25 08:49:25;;;;;;;11.38;8.93;;;28.00;1.00;;;;;;4983245;28;20043;-71
2023/06/25 08:51:56;;;;;;;10.13;9.18;;;28.20;1.00;;;;;;4977153;28;20057;-71
2023/06/25 08:54:22;;;;;;;8.75;7.95;;;28.20;1.00;;;;;;4975560;28;20055;-71
2023/06/25 08:56:47;;;;;;;9.65;8.68;;;28.30;1.00;;;;;;4979897;28;20050;-72
2023/06/25 08:59:13;;;;;;;9.60;8.70;;;28.30;1.00;;;;;;4978465;28;20583;-72
2023/06/25 09:01:39;;;;;;;9.82;8.82;;;28.50;1.00;;;;;;4980302;28;20034;-72
2023/06/25 09:04:04;;;;;;;9.77;8.93;;;28.70;1.00;;;;;;4978197;28;20033;-72
2023/06/25 09:06:39;;;;;;;8.82;8.07;;;28.70;1.00;;;;;;4977152;28;20041;-71
2023/06/25 09:09:05;;;;;;;9.40;8.48;;;28.70;1.00;;;;;;4969958;28;20049;-72
2023/06/25 09:11:33;;;;;;;8.85;8.07;;;28.70;1.00;;;;;;4979028;28;20038;-72
2023/06/25 09:14:00;;;;;;;10.25;9.32;;;28.90;1.00;;;;;;4980666;28;20172;-72
2023/06/25 09:16:26;;;;;;;10.45;7.93;;;29.00;1.00;;;;;;4977317;28;20046;-71
2023/06/25 09:18:52;;;;;;;9.05;8.18;;;29.00;1.00;;;;;;4978424;28;20141;-72
2023/06/25 09:21:17;;;;;;;8.73;7.72;;;29.20;1.00;;;;;;4981371;28;20341;-72
2023/06/25 09:23:51;;;;;;;9.50;8.52;;;29.40;1.00;;;;;;4981925;28;20085;-72
2023/06/25 09:26:17;;;;;;;8.95;8.15;;;29.60;1.00;;;;;;4979207;28;20058;-70
2023/06/25 09:28:59;;;;;;;9.05;7.25;;;29.80;1.00;;;;;;4985016;28;20088;-73
2023/06/25 09:31:25;;;;;;;7.50;6.80;;;30.00;1.00;;;;;;4983809;28;20054;-72
2023/06/25 09:33:51;;;;;;;8.88;6.80;;;30.10;1.00;;;;;;4986190;28;20639;-71
2023/06/25 09:36:17;;;;;;;6.40;5.78;;;30.10;1.00;;;;;;4979933;28;20046;-70
2023/06/25 09:38:45;;;;;;;6.47;5.88;;;30.00;1.00;;;;;;4976000;28;20042;-72
2023/06/25 09:41:15;;;;;;;3.88;3.58;;;30.20;1.00;;;;;;4979041;28;20701;-71
2023/06/25 09:43:43;;;;;;;3.22;2.92;;;30.40;1.00;;;;;;4978861;28;20050;-72
2023/06/25 09:46:10;;;;;;;5.03;4.53;;;30.60;1.00;;;;;;4955897;28;20846;-70
2023/06/25 09:48:37;;;;;;;4.43;3.45;;;30.90;1.00;;;;;;4976982;28;20062;-74
2023/06/25 09:51:06;;;;;;;2.88;2.22;;;31.10;1.00;;;;;;4981035;28;20054;-71
2023/06/25 09:53:35;;;;;;;5.25;3.15;;;31.30;1.00;;;;;;4978443;28;20698;-71
2023/06/25 09:56:03;;;;;;;3.05;2.65;;;31.40;1.00;;;;;;4975848;28;20088;-71
2023/06/25 09:58:29;;;;;;;5.38;4.07;;;31.50;1.00;;;;;;4979278;28;20045;-71
2023/06/25 10:00:55;;;;;;;4.28;3.78;;;31.70;1.00;;;;;;4977914;28;20120;-72
2023/06/25 10:03:23;;;;;;;4.78;2.90;;;31.60;1.00;;;;;;4961058;28;20049;-72
2023/06/25 10:05:51;;;;;;;2.65;2.45;;;31.60;1.00;;;;;;4973997;28;20054;-73
2023/06/25 10:08:19;;;;;;;2.88;2.28;;;31.80;11.90;;;;;;4979196;28;20034;-71
2023/06/25 10:10:56;;;;;;;3.47;3.28;;;31.70;11.40;;;;;;4968925;28;20034;-70
2023/06/25 10:13:22;;;;;;;5.78;3.97;;;32.00;18.60;;;;;;4975589;28;20030;-70
2023/06/25 10:16:01;;;;;;;4.63;4.22;;;32.00;28.20;;;;;;4977066;28;20832;-72
2023/06/25 10:18:26;;;;;;;2.83;2.42;;;32.00;35.80;;;;;;4977268;28;20105;-71
2023/06/25 10:20:59;;;;;;;2.53;2.33;;;31.80;26.10;;;;;;4976322;28;20125;-71
2023/06/25 10:23:26;;;;;;;3.80;2.75;;;31.90;27.90;;;;;;4974407;28;20042;-71
2023/06/25 10:25:56;;;;;;;4.30;3.90;;;32.20;19.00;;;;;;4975287;28;20643;-72
2023/06/25 10:28:29;;;;;;;4.68;3.85;;;31.90;33.70;;;;;;4976838;28;20047;-71
2023/06/25 10:30:55;;;;;;;3.70;3.05;;;31.80;37.40;;;;;;4976212;28;20100;-71
2023/06/25 10:33:22;;;;;;;4.18;3.67;;;32.00;36.40;;;;;;4976558;28;20042;-71
2023/06/25 10:35:55;;;;;;;4.05;3.75;;;32.40;40.40;;;;;;4975420;28;20125;-70
2023/06/25 10:38:22;;;;;;;3.53;3.22;;;32.40;39.10;;;;;;4979436;28;20053;-71
2023/06/25 10:40:47;;;;;;;3.58;3.28;;;32.20;30.80;;;;;;4975923;28;20049;-72
2023/06/25 10:43:20;;;;;;;4.10;3.80;;;32.00;27.60;;;;;;4974777;28;20030;-70
2023/06/25 10:45:53;;;;;;;3.58;3.28;;;31.90;31.70;;;;;;4976599;28;20565;-71
2023/06/25 10:48:20;;;;;;;5.07;4.43;;;31.90;27.70;;;;;;4976813;28;20042;-72
2023/06/25 10:50:47;;;;;;;6.60;4.03;;;32.00;18.30;;;;;;4971930;28;20663;-71
2023/06/25 10:53:14;;;;;;;4.05;3.67;;;31.90;19.60;;;;;;4974738;28;20492;-71
2023/06/25 10:55:44;;;;;;;3.85;3.55;;;32.10;18.40;;;;;;4981821;28;20060;-72
2023/06/25 10:58:09;;;;;;;4.65;4.25;;;31.80;13.30;;;;;;4977631;28;20396;-72
2023/06/25 11:00:35;;;;;;;3.70;3.40;;;31.70;14.00;;;;;;4976854;28;20072;-71
2023/06/25 11:03:01;;;;;;;3.60;3.30;;;31.70;10.50;;;;;;4979377;28;20405;-71
2023/06/25 11:05:36;;;;;;;2.88;2.35;;;31.50;8.50;;;;;;4980966;28;20037;-71
2023/06/25 11:08:07;;;;;;;1.95;1.60;;;31.50;7.80;;;;;;4976077;28;20041;-72
2023/06/25 11:10:33;;;;;;;2.63;1.98;;;31.50;1.00;;;;;;4969359;28;20054;-71
2023/06/25 11:12:59;;;;;;;4.20;2.08;;;31.70;1.00;;;;;;4976151;28;20058;-71
2023/06/25 11:15:29;;;;;;;2.38;2.17;;;32.00;6.10;;;;;;4977756;28;20054;-71
2023/06/25 11:17:55;;;;;;;2.75;1.98;;;32.20;2.00;;;;;;4973683;28;20871;-71
2023/06/25 11:20:24;;;;;;;3.53;1.88;;;32.40;4.80;;;;;;4975271;28;20040;-71
2023/06/25 11:22:50;;;;;;;3.97;3.60;;;32.80;8.10;;;;;;4978470;28;20070;-72
2023/06/25 11:25:18;;;;;;;2.70;2.50;;;32.90;19.10;;;;;;4977163;28;20558;-71
2023/06/25 11:27:44;;;;;;;4.07;2.10;;;32.80;17.90;;;;;;4972494;28;20070;-71
2023/06/25 11:30:10;;;;;;;2.33;1.73;;;32.60;11.10;;;;;;4973538;28;20049;-71
2023/06/25 11:32:38;;;;;;;2.40;1.70;;;32.80;4.10;;;;;;4969169;28;20374;-71
2023/06/25 11:35:15;;;;;;;4.35;1.85;;;32.90;1.00;;;;;;4982276;28;20100;-70
2023/06/25 11:37:49;;;;;;;3.75;1.42;;;33.00;1.00;;;;;;4972328;28;20594;-72
2023/06/25 11:40:25;;;;;;;2.92;1.77;;;33.20;1.00;;;;;;4972914;28;20093;-71
2023/06/25 11:42:51;;;;;;;3.97;1.75;;;33.50;1.00;;;;;;4982934;28;20098;-72
2023/06/25 11:45:18;;;;;;;2.05;1.70;;;33.40;1.00;;;;;;4979784;28;20121;-71
2023/06/25 11:47:46;;;;;;;1.75;1.60;;;33.40;1.00;;;;;;4981680;28;20685;-72
2023/06/25 11:50:12;;;;;;;2.00;1.30;;;33.20;1.00;;;;;;4983592;28;20132;-72
2023/06/25 11:52:38;;;;;;;3.92;1.60;;;33.10;1.00;;;;;;4979700;28;20074;-72
2023/06/25 11:55:06;;;;;;;1.80;1.70;;;33.20;1.00;;;;;;4981196;28;20080;-72
2023/06/25 11:57:31;;;;;;;2.67;1.67;;;33.20;1.00;;;;;;4976872;28;20569;-72
2023/06/25 11:59:57;;;;;;;2.35;1.90;;;33.40;1.00;;;;;;4973574;28;20038;-72
2023/06/25 12:02:23;;;;;;;2.17;1.90;;;33.60;1.00;;;;;;4981102;28;20069;-70
2023/06/25 12:04:48;;;;;;;1.98;1.50;;;33.50;1.00;;;;;;4971577;28;20152;-71
2023/06/25 12:07:14;;;;;;;2.30;1.60;;;33.40;1.00;;;;;;4987095;28;20037;-71
2023/06/25 12:09:40;;;;;;;1.70;1.50;;;33.20;1.00;;;;;;4978315;28;20051;-72
2023/06/25 12:12:06;;;;;;;1.92;1.63;;;33.30;1.00;;;;;;4991218;28;20061;-71
2023/06/25 12:14:32;;;;;;;2.92;1.50;;;32.90;1.00;;;;;;4986171;28;20682;-72
2023/06/25 12:16:58;;;;;;;1.65;1.30;;;33.00;1.00;;;;;;4992973;28;20033;-71
2023/06/25 12:19:24;;;;;;;2.63;1.15;;;33.50;1.00;;;;;;4980742;28;20042;-71
2023/06/25 12:21:49;;;;;;;1.27;0.90;;;33.60;1.00;;;;;;4977636;28;20627;-71
2023/06/25 12:24:15;;;;;;;1.92;1.77;;;33.80;1.00;;;;;;4985744;28;20496;-72
2023/06/25 12:26:41;;;;;;;1.60;1.50;;;33.60;1.00;;;;;;4981541;28;20061;-72
2023/06/25 12:29:07;;;;;;;1.50;1.25;;;33.60;1.00;;;;;;4980630;28;20475;-73
2023/06/25 12:31:33;;;;;;;2.05;1.60;;;33.60;1.00;;;;;;4979128;28;20038;-71
2023/06/25 12:33:59;;;;;;;1.65;1.42;;;33.80;1.00;;;;;;4984302;28;20320;-72
2023/06/25 12:36:25;;;;;;;1.92;1.73;;;34.30;1.00;;;;;;4983601;28;20050;-71
2023/06/25 12:38:50;;;;;;;2.95;1.63;;;34.20;1.00;;;;;;4985569;28;20545;-72
2023/06/25 12:41:17;;;;;;;2.00;1.70;;;34.10;1.00;;;;;;4982576;28;20049;-71
2023/06/25 12:43:43;;;;;;;3.80;1.73;;;33.90;1.00;;;;;;4981595;28;20050;-71
2023/06/25 12:46:08;;;;;;;3.00;1.42;;;34.00;1.00;;;;;;4987255;28;20062;-73